Hauptseite
METAR-TAF:

METAR-TAF

Flughäfen :

Mailand, Italien

Flughafen Mailand-Malpensa

Breite: 45-37N, Länge: 008-44E, Höhe: 234 m

Beobachtung

Neuester Wetterbericht von vor 46 Minuten, um 12:20 UTC
Wind 3 kt aus Süd, variierte zwischen Ost und Süd/Südwest
Temperatur 9°C
Luftfeuchtigkeit 40%
Luftdruck 1011 hPa
Sichtweite 10 km oder mehr
keine Wolken unter 1500 m und keine Kumulonimbus oder Gewitterwolken

METAR: LIMC 201220Z 17003KT 100V200 CAVOK 09/M04 Q1011 NOSIG

Zeit: 14:06 (13:06 UTC)

Prognose

Neuester Wetterbericht von vor 2 Stunden und 6 Minuten, um 11:00 UTC
Gültige Prognose vom 20 um 12 UTC bis 21 um 18 UTC
Wind 5 kt aus Nord
Sichtweite 10 km oder mehr
Aufgelockert bewölkt in der Höhe von 8000 ft

TAF: LIMC 201100Z 2012/2118 35005KT 9999 SCT080

Wetterbeobachtungen und Prognosen von mehr als 4000 Flughäfen (METAR und TAF Bericht).

Die verfügbaren Stationen werden durch gelbe und rote Markierungen auf der Karte dargestellt.

Führen Sie die Maus auf sie, um den Namen der Station zu sehen.

Darauf klicken, um die Beobachtung von Wetterbeobachtungen und Prognosen zu sehen.

Um die Karte zu ändern : klicken Sie auf den grünen Tasten mit einem schwarzen Kreuz Zum Vergrößern, auf den grünen Button mit einem Gedankenstrich zu verkleinern, oder auf die grünen Pfeile für benachbarte Karten.


METAR-TAF: